createdAt,value
2019-01-06T00:01:01.163Z,14.57
2019-01-06T00:03:49.844Z,14.10
2019-01-06T00:06:37.374Z,16.23
2019-01-06T00:09:42.328Z,15.27
2019-01-06T00:12:49.070Z,15.63
2019-01-06T00:15:46.683Z,14.80
2019-01-06T00:18:33.746Z,14.80
2019-01-06T00:21:23.490Z,16.60
2019-01-06T00:24:15.155Z,16.00
2019-01-06T00:27:03.025Z,16.50
2019-01-06T00:30:00.737Z,16.83
2019-01-06T00:32:48.344Z,16.40
2019-01-06T00:35:38.430Z,18.03
2019-01-06T00:38:37.830Z,16.83
2019-01-06T00:41:35.696Z,16.43
2019-01-06T00:44:24.412Z,16.23
2019-01-06T00:47:11.640Z,15.10
2019-01-06T00:49:59.001Z,16.20
2019-01-06T00:52:50.451Z,12.93
2019-01-06T00:55:48.009Z,14.43
2019-01-06T00:58:39.969Z,15.63
2019-01-06T01:01:27.134Z,16.03
2019-01-06T01:04:28.185Z,18.67
2019-01-06T01:07:16.115Z,15.13
2019-01-06T01:10:14.148Z,16.53
2019-01-06T01:13:01.523Z,16.77
2019-01-06T01:15:48.887Z,17.10
2019-01-06T01:18:36.325Z,14.67
2019-01-06T01:21:34.152Z,16.73
2019-01-06T01:24:27.182Z,16.40
2019-01-06T01:27:14.540Z,15.30
2019-01-06T01:30:03.300Z,16.43
2019-01-06T01:32:55.094Z,15.20
2019-01-06T01:35:49.883Z,14.60
2019-01-06T01:38:56.816Z,16.43
2019-01-06T01:41:42.982Z,15.17
2019-01-06T01:44:40.528Z,13.57
2019-01-06T01:47:41.561Z,16.47
2019-01-06T01:50:30.306Z,13.70
2019-01-06T01:53:21.702Z,16.17
2019-01-06T01:56:25.657Z,14.60
2019-01-06T01:59:20.183Z,14.30
2019-01-06T02:02:14.592Z,16.33
2019-01-06T02:05:18.334Z,14.07
2019-01-06T02:08:06.921Z,16.63
2019-01-06T02:11:06.628Z,14.57
2019-01-06T02:13:58.234Z,13.57
2019-01-06T02:16:53.261Z,15.60
2019-01-06T02:19:41.794Z,16.23
2019-01-06T02:22:39.622Z,14.93
2019-01-06T02:25:42.570Z,12.20
2019-01-06T02:28:49.327Z,11.73
2019-01-06T02:31:56.048Z,9.90
2019-01-06T02:34:59.771Z,12.10
2019-01-06T02:37:46.658Z,11.43
2019-01-06T02:40:35.651Z,13.47
2019-01-06T02:43:21.782Z,10.37
2019-01-06T02:46:13.825Z,13.00
2019-01-06T02:49:14.697Z,14.00
2019-01-06T02:52:06.320Z,13.10
2019-01-06T02:54:55.111Z,14.53
2019-01-06T02:57:42.338Z,13.13
2019-01-06T03:00:49.575Z,11.97
2019-01-06T03:03:50.545Z,11.40
2019-01-06T03:06:37.541Z,14.97
2019-01-06T03:09:29.957Z,14.73
2019-01-06T03:12:17.473Z,13.50
2019-01-06T03:15:03.238Z,15.87
2019-01-06T03:17:50.601Z,16.37
2019-01-06T03:20:37.861Z,15.73
2019-01-06T03:23:20.042Z,14.33
2019-01-06T03:26:19.133Z,13.63
2019-01-06T03:29:06.396Z,13.97
2019-01-06T03:31:54.089Z,12.70
2019-01-06T03:34:38.558Z,13.03
2019-01-06T03:37:42.654Z,13.33
2019-01-06T03:40:34.188Z,12.90
2019-01-06T03:43:15.887Z,11.03
2019-01-06T03:46:17.121Z,14.83
2019-01-06T03:49:07.194Z,13.67
2019-01-06T03:52:04.835Z,12.63
2019-01-06T03:54:53.521Z,13.67
2019-01-06T03:57:54.237Z,12.93
2019-01-06T04:00:42.189Z,14.43
2019-01-06T04:03:37.378Z,14.70
2019-01-06T04:06:29.445Z,15.00
2019-01-06T04:09:19.146Z,13.40
2019-01-06T04:12:10.877Z,10.93
2019-01-06T04:15:02.589Z,15.50
2019-01-06T04:18:09.865Z,11.73
2019-01-06T04:21:03.686Z,14.27
2019-01-06T04:23:58.581Z,14.90
2019-01-06T04:27:00.004Z,13.70
2019-01-06T04:29:47.899Z,11.83
2019-01-06T04:32:45.716Z,12.47
2019-01-06T04:35:40.667Z,12.37
2019-01-06T04:38:29.344Z,11.83
2019-01-06T04:41:36.097Z,12.07
2019-01-06T04:44:24.901Z,13.33
2019-01-06T04:47:13.645Z,13.27
2019-01-06T04:50:00.940Z,14.83
2019-01-06T04:52:48.618Z,10.87
2019-01-06T04:55:49.654Z,12.13
2019-01-06T04:58:41.408Z,12.60
2019-01-06T05:01:28.937Z,12.50
2019-01-06T05:04:20.471Z,12.77
2019-01-06T05:07:07.815Z,10.43
2019-01-06T05:10:09.096Z,14.50
2019-01-06T05:13:13.578Z,11.27
2019-01-06T05:15:57.052Z,10.23
2019-01-06T05:18:44.397Z,13.67
2019-01-06T05:21:28.597Z,11.33
2019-01-06T05:24:15.838Z,12.93
2019-01-06T05:26:58.969Z,12.57
2019-01-06T05:30:00.761Z,15.20
2019-01-06T05:32:48.584Z,15.53
2019-01-06T05:35:49.578Z,22.13
2019-01-06T05:38:40.184Z,20.63
2019-01-06T05:41:28.914Z,19.23
2019-01-06T05:44:15.894Z,16.93
2019-01-06T05:47:16.528Z,18.53
2019-01-06T05:50:14.603Z,19.43
2019-01-06T05:53:01.997Z,15.73
2019-01-06T05:55:56.739Z,14.83
2019-01-06T05:58:45.572Z,14.03
2019-01-06T06:01:34.124Z,14.53
2019-01-06T06:04:22.979Z,14.90
2019-01-06T06:07:11.439Z,15.40
2019-01-06T06:10:04.642Z,19.93
2019-01-06T06:12:52.591Z,13.90
2019-01-06T06:15:40.041Z,17.60
2019-01-06T06:18:31.643Z,19.60
2019-01-06T06:21:31.440Z,20.53
2019-01-06T06:24:25.724Z,16.00
2019-01-06T06:27:22.046Z,14.07
2019-01-06T06:30:21.549Z,16.10
2019-01-06T06:33:34.829Z,17.90
2019-01-06T06:36:36.845Z,19.30
2019-01-06T06:39:59.274Z,17.40
2019-01-06T06:42:48.061Z,19.27
2019-01-06T06:45:49.671Z,15.87
2019-01-06T06:48:32.324Z,18.70
2019-01-06T06:51:30.157Z,17.07
2019-01-06T06:54:21.746Z,17.10
2019-01-06T06:57:45.076Z,14.83
2019-01-06T07:00:53.371Z,16.67
2019-01-06T07:03:57.427Z,16.90
2019-01-06T07:06:52.554Z,16.53
2019-01-06T07:09:44.040Z,17.23
2019-01-06T07:12:31.506Z,11.50
2019-01-06T07:15:18.734Z,24.43
2019-01-06T07:18:07.457Z,19.37
2019-01-06T07:20:57.626Z,8.47
2019-01-06T07:23:45.134Z,5.77
2019-01-06T07:26:46.158Z,13.50
2019-01-06T07:29:33.859Z,13.60
2019-01-06T07:32:21.148Z,19.70
2019-01-06T07:35:10.058Z,14.10
2019-01-06T07:37:57.763Z,14.90
2019-01-06T07:40:50.779Z,27.67
2019-01-06T07:43:42.495Z,31.07
2019-01-06T07:46:37.292Z,27.73
2019-01-06T07:49:28.995Z,21.40
2019-01-06T07:52:14.802Z,23.13
2019-01-06T07:55:14.490Z,20.67
2019-01-06T07:58:03.089Z,20.00
2019-01-06T08:00:55.030Z,23.33
2019-01-06T08:03:46.008Z,17.87
2019-01-06T08:06:33.675Z,16.43
2019-01-06T08:09:23.218Z,20.43
2019-01-06T08:12:11.912Z,18.63
2019-01-06T08:15:01.103Z,20.10
2019-01-06T08:17:48.280Z,17.60
2019-01-06T08:20:46.538Z,16.23
2019-01-06T08:23:33.783Z,20.20
2019-01-06T08:26:24.011Z,19.40
2019-01-06T08:29:15.721Z,21.40
2019-01-06T08:31:56.347Z,20.50
2019-01-06T08:34:44.982Z,23.77
2019-01-06T08:37:32.526Z,16.63
2019-01-06T08:40:27.633Z,16.27
2019-01-06T08:43:31.229Z,8.40
2019-01-06T08:46:18.612Z,13.57
2019-01-06T08:49:05.864Z,17.20
2019-01-06T08:51:54.733Z,16.17
2019-01-06T08:54:42.557Z,12.63
2019-01-06T08:57:26.273Z,12.90
2019-01-06T09:00:16.271Z,16.20
2019-01-06T09:03:11.109Z,15.50
2019-01-06T09:05:59.945Z,14.73
2019-01-06T09:08:48.329Z,19.00
2019-01-06T09:11:42.631Z,12.27
2019-01-06T09:14:39.449Z,11.27
2019-01-06T09:17:28.487Z,15.30
2019-01-06T09:20:26.575Z,10.77
2019-01-06T09:23:15.320Z,11.73
2019-01-06T09:26:02.834Z,14.57
2019-01-06T09:28:57.816Z,17.70
2019-01-06T09:31:48.591Z,18.80
2019-01-06T09:34:29.086Z,17.00
2019-01-06T09:37:16.726Z,23.33
2019-01-06T09:40:06.738Z,24.70
2019-01-06T09:43:13.892Z,22.63
2019-01-06T09:46:14.771Z,21.77
2019-01-06T09:49:03.772Z,20.80
2019-01-06T09:52:07.813Z,23.87
2019-01-06T09:55:00.316Z,20.60
2019-01-06T09:57:52.538Z,18.60
2019-01-06T10:00:41.497Z,15.63
2019-01-06T10:03:36.113Z,19.43
2019-01-06T10:06:23.421Z,18.73
2019-01-06T10:09:11.265Z,22.77
2019-01-06T10:12:15.239Z,15.97
2019-01-06T10:15:05.374Z,16.60
2019-01-06T10:17:51.014Z,18.13
2019-01-06T10:20:38.471Z,18.13
2019-01-06T10:23:25.734Z,27.67
2019-01-06T10:26:13.036Z,20.67
2019-01-06T10:29:04.636Z,21.67
2019-01-06T10:31:52.048Z,21.60
2019-01-06T10:34:39.701Z,20.53
2019-01-06T10:37:34.656Z,41.20
2019-01-06T10:40:30.388Z,40.07
2019-01-06T10:43:22.271Z,27.93
2019-01-06T10:46:18.095Z,23.70
2019-01-06T10:49:13.481Z,30.00
2019-01-06T10:52:11.109Z,21.17
2019-01-06T10:55:04.171Z,22.53
2019-01-06T10:58:02.043Z,21.03
2019-01-06T11:01:09.217Z,25.43
2019-01-06T11:04:00.931Z,29.30
2019-01-06T11:06:49.598Z,26.93
2019-01-06T11:09:47.558Z,28.23
2019-01-06T11:12:35.469Z,36.77
2019-01-06T11:15:23.818Z,32.57
2019-01-06T11:18:17.779Z,23.30
2019-01-06T11:21:16.161Z,29.00
2019-01-06T11:24:13.950Z,22.50
2019-01-06T11:27:14.830Z,26.83
2019-01-06T11:30:03.655Z,21.70
2019-01-06T11:32:56.765Z,18.70
2019-01-06T11:35:44.084Z,26.93
2019-01-06T11:38:45.928Z,25.00
2019-01-06T11:41:34.667Z,30.93
2019-01-06T11:44:36.796Z,22.67
2019-01-06T11:47:35.784Z,19.40
2019-01-06T11:50:24.570Z,26.10
2019-01-06T11:53:14.611Z,23.47
2019-01-06T11:56:02.247Z,22.03
2019-01-06T11:59:09.750Z,19.10
2019-01-06T12:01:57.183Z,25.37
2019-01-06T12:05:03.750Z,21.17
2019-01-06T12:08:05.930Z,25.70
2019-01-06T12:10:51.133Z,24.33
2019-01-06T12:13:44.435Z,26.13
2019-01-06T12:16:41.909Z,27.23
2019-01-06T12:19:36.652Z,29.97
2019-01-06T12:22:24.374Z,22.03
2019-01-06T12:25:13.447Z,31.03
2019-01-06T12:28:02.686Z,29.73
2019-01-06T12:30:56.126Z,23.60
2019-01-06T12:33:44.902Z,25.30
2019-01-06T12:36:32.367Z,27.83
2019-01-06T12:39:28.893Z,28.97
2019-01-06T12:42:17.568Z,26.40
2019-01-06T12:45:05.745Z,25.33
2019-01-06T12:47:58.514Z,22.87
2019-01-06T12:50:53.453Z,22.67
2019-01-06T12:53:40.836Z,17.60
2019-01-06T12:56:43.081Z,20.37
2019-01-06T12:59:30.568Z,19.47
2019-01-06T13:02:28.968Z,20.33
2019-01-06T13:05:16.637Z,19.80
2019-01-06T13:08:20.507Z,19.03
2019-01-06T13:11:07.920Z,20.27
2019-01-06T13:13:57.074Z,18.80
2019-01-06T13:16:44.321Z,20.07
2019-01-06T13:19:42.408Z,17.17
2019-01-06T13:22:40.681Z,18.67
2019-01-06T13:25:28.040Z,16.23
2019-01-06T13:28:34.726Z,17.17
2019-01-06T13:31:41.822Z,18.60
2019-01-06T13:34:34.662Z,17.53
2019-01-06T13:37:35.632Z,16.80
2019-01-06T13:40:31.163Z,17.40
2019-01-06T13:43:34.964Z,18.10
2019-01-06T13:46:27.417Z,15.67
2019-01-06T13:49:16.241Z,15.40
2019-01-06T13:52:18.866Z,16.50
2019-01-06T13:55:06.486Z,15.97
2019-01-06T13:57:53.714Z,17.43
2019-01-06T14:00:46.431Z,17.13
2019-01-06T14:03:44.066Z,15.17
2019-01-06T14:06:35.689Z,13.97
2019-01-06T14:09:24.494Z,12.67
2019-01-06T14:12:13.134Z,11.93
2019-01-06T14:15:17.262Z,11.10
2019-01-06T14:18:06.056Z,10.83
2019-01-06T14:20:53.702Z,9.50
2019-01-06T14:23:42.574Z,10.60
2019-01-06T14:26:48.710Z,9.80
2019-01-06T14:29:36.455Z,9.27
2019-01-06T14:32:37.594Z,10.00
2019-01-06T14:35:26.557Z,8.77
2019-01-06T14:38:06.771Z,8.97
2019-01-06T14:41:13.632Z,8.30
2019-01-06T14:44:03.290Z,7.53
2019-01-06T14:46:54.811Z,7.90
2019-01-06T14:49:52.443Z,7.50
2019-01-06T14:52:59.045Z,7.37
2019-01-06T14:55:56.711Z,5.80
2019-01-06T14:58:56.682Z,6.40
2019-01-06T15:01:49.528Z,7.80
2019-01-06T15:04:47.015Z,7.63
2019-01-06T15:07:44.863Z,7.00
2019-01-06T15:10:40.808Z,7.67
2019-01-06T15:13:37.257Z,8.30
2019-01-06T15:16:24.202Z,7.03
2019-01-06T15:19:18.782Z,7.60
2019-01-06T15:22:05.806Z,8.10
2019-01-06T15:24:54.432Z,7.77
2019-01-06T15:27:43.802Z,7.87
2019-01-06T15:30:37.287Z,7.93
2019-01-06T15:33:34.849Z,7.83
2019-01-06T15:36:22.350Z,7.80
2019-01-06T15:39:19.737Z,9.47
2019-01-06T15:42:12.840Z,7.33
2019-01-06T15:45:01.465Z,8.63
2019-01-06T15:47:59.917Z,7.37
2019-01-06T15:50:47.187Z,7.83
2019-01-06T15:53:39.116Z,7.97
2019-01-06T15:56:26.874Z,8.60
2019-01-06T15:59:18.613Z,8.40
2019-01-06T16:02:05.147Z,9.17
2019-01-06T16:05:09.280Z,8.17
2019-01-06T16:08:16.275Z,8.33
2019-01-06T16:11:17.111Z,7.67
2019-01-06T16:14:05.856Z,8.60
2019-01-06T16:17:00.542Z,8.83
2019-01-06T16:19:50.746Z,9.80
2019-01-06T16:22:44.481Z,9.53
2019-01-06T16:25:31.722Z,10.57
2019-01-06T16:28:19.195Z,10.80
2019-01-06T16:31:13.852Z,10.10
2019-01-06T16:34:02.557Z,8.67
2019-01-06T16:37:07.207Z,9.43
2019-01-06T16:39:55.638Z,8.97
2019-01-06T16:42:56.732Z,9.50
2019-01-06T16:45:45.678Z,9.37
2019-01-06T16:48:50.507Z,8.77
2019-01-06T16:51:39.111Z,7.70
2019-01-06T16:54:30.912Z,7.90
2019-01-06T16:57:25.821Z,7.53
2019-01-06T17:00:19.789Z,6.47
2019-01-06T17:03:08.712Z,8.83
2019-01-06T17:05:56.594Z,7.13
2019-01-06T17:08:54.103Z,7.37
2019-01-06T17:11:44.851Z,6.83
2019-01-06T17:14:42.512Z,7.20
2019-01-06T17:17:43.182Z,7.00
2019-01-06T17:20:30.515Z,5.87
2019-01-06T17:23:19.465Z,6.13
2019-01-06T17:26:23.732Z,6.00
2019-01-06T17:29:18.732Z,5.60
2019-01-06T17:32:10.475Z,5.37
2019-01-06T17:34:59.492Z,5.67
2019-01-06T17:37:54.150Z,5.50
2019-01-06T17:40:41.502Z,5.70
2019-01-06T17:43:29.003Z,6.27
2019-01-06T17:46:23.700Z,5.00
2019-01-06T17:49:15.361Z,5.73
2019-01-06T17:52:02.759Z,6.00
2019-01-06T17:54:51.550Z,4.70
2019-01-06T17:57:40.180Z,5.30
2019-01-06T18:00:39.215Z,4.73
2019-01-06T18:03:27.920Z,4.00
2019-01-06T18:06:15.596Z,3.03
2019-01-06T18:09:02.922Z,3.60
2019-01-06T18:12:03.835Z,3.67
2019-01-06T18:14:59.791Z,3.47
2019-01-06T18:17:57.428Z,3.60
2019-01-06T18:20:44.771Z,2.77
2019-01-06T18:23:42.517Z,3.30
2019-01-06T18:26:29.960Z,3.03
2019-01-06T18:29:17.665Z,3.67
2019-01-06T18:32:04.836Z,2.80
2019-01-06T18:34:56.712Z,2.83
2019-01-06T18:37:44.387Z,3.07
2019-01-06T18:40:42.320Z,2.70
2019-01-06T18:43:29.603Z,2.90
2019-01-06T18:46:16.886Z,2.60
2019-01-06T18:49:14.515Z,3.63
2019-01-06T18:52:09.596Z,3.53
2019-01-06T18:54:57.093Z,3.77
2019-01-06T18:57:45.588Z,3.47
2019-01-06T19:00:33.724Z,3.00
2019-01-06T19:03:28.563Z,3.83
2019-01-06T19:06:32.229Z,3.27
2019-01-06T19:09:19.680Z,3.57
2019-01-06T19:12:23.470Z,3.00
2019-01-06T19:15:10.952Z,2.63
2019-01-06T19:18:04.167Z,3.40
2019-01-06T19:20:51.957Z,3.63
2019-01-06T19:23:46.595Z,8.17
2019-01-06T19:26:41.202Z,9.87
2019-01-06T19:29:28.921Z,7.17
2019-01-06T19:32:17.664Z,5.70
2019-01-06T19:35:07.412Z,3.83
2019-01-06T19:38:01.949Z,5.57
2019-01-06T19:41:09.033Z,5.80
2019-01-06T19:43:54.603Z,7.83
2019-01-06T19:47:00.433Z,6.47
2019-01-06T19:49:47.867Z,5.80
2019-01-06T19:52:35.380Z,5.57
2019-01-06T19:55:33.197Z,5.43
2019-01-06T19:58:20.751Z,4.80
2019-01-06T20:01:07.963Z,4.53
2019-01-06T20:03:56.412Z,3.70
2019-01-06T20:06:43.646Z,4.27
2019-01-06T20:09:38.419Z,4.00
2019-01-06T20:12:26.015Z,3.63
2019-01-06T20:15:13.193Z,3.57
2019-01-06T20:18:01.906Z,4.27
2019-01-06T20:20:49.448Z,5.13
2019-01-06T20:23:36.761Z,4.10
2019-01-06T20:26:28.540Z,4.13
2019-01-06T20:29:16.117Z,4.60
2019-01-06T20:32:22.982Z,4.17
2019-01-06T20:35:10.274Z,4.03
2019-01-06T20:37:57.887Z,4.40
2019-01-06T20:40:46.764Z,4.37
2019-01-06T20:43:44.733Z,4.27
2019-01-06T20:46:47.859Z,4.53
2019-01-06T20:49:48.303Z,3.73
2019-01-06T20:52:41.768Z,3.93
2019-01-06T20:55:26.412Z,4.43
2019-01-06T20:58:14.026Z,4.77
2019-01-06T21:01:02.788Z,3.80
2019-01-06T21:03:54.326Z,3.87
2019-01-06T21:06:43.297Z,3.77
2019-01-06T21:09:50.522Z,4.43
2019-01-06T21:12:39.648Z,4.27
2019-01-06T21:15:40.951Z,3.93
2019-01-06T21:18:33.751Z,4.00
2019-01-06T21:21:23.963Z,4.50
2019-01-06T21:24:18.857Z,4.47
2019-01-06T21:27:04.540Z,4.60
2019-01-06T21:29:47.918Z,4.10
2019-01-06T21:32:45.395Z,4.20
2019-01-06T21:35:46.142Z,3.90
2019-01-06T21:38:34.729Z,4.03
2019-01-06T21:41:21.872Z,4.43
2019-01-06T21:44:10.582Z,4.07
2019-01-06T21:46:58.264Z,3.80
2019-01-06T21:49:46.982Z,3.93
2019-01-06T21:52:53.869Z,4.13
2019-01-06T21:55:45.764Z,4.83
2019-01-06T21:58:46.420Z,4.03
2019-01-06T22:01:41.380Z,4.37
2019-01-06T22:04:29.806Z,4.73
2019-01-06T22:07:21.560Z,5.23
2019-01-06T22:10:08.157Z,5.40
2019-01-06T22:13:02.767Z,7.33
2019-01-06T22:15:54.523Z,5.40
2019-01-06T22:18:46.381Z,4.70
2019-01-06T22:21:41.228Z,4.83
2019-01-06T22:24:23.539Z,4.30
2019-01-06T22:27:26.398Z,5.17
2019-01-06T22:30:30.446Z,4.47
2019-01-06T22:33:24.992Z,4.70
2019-01-06T22:36:12.118Z,4.57
2019-01-06T22:38:59.812Z,4.67
2019-01-06T22:41:51.373Z,5.03
2019-01-06T22:44:39.075Z,5.30
2019-01-06T22:47:37.404Z,4.70
2019-01-06T22:50:35.053Z,5.47
2019-01-06T22:53:28.452Z,5.43
2019-01-06T22:56:15.746Z,4.77
2019-01-06T22:59:04.934Z,4.83
2019-01-06T23:01:52.216Z,4.80
2019-01-06T23:04:40.930Z,4.63
2019-01-06T23:07:29.635Z,4.23
2019-01-06T23:10:21.534Z,4.83
2019-01-06T23:13:08.063Z,4.70
2019-01-06T23:16:11.904Z,5.37
2019-01-06T23:18:59.416Z,6.13
2019-01-06T23:22:06.087Z,5.37
2019-01-06T23:24:58.241Z,5.50
2019-01-06T23:27:56.068Z,5.33
2019-01-06T23:30:56.676Z,5.20
2019-01-06T23:33:57.557Z,5.03
2019-01-06T23:36:47.706Z,5.10
2019-01-06T23:39:48.284Z,5.63
2019-01-06T23:42:46.259Z,5.33
2019-01-06T23:45:33.793Z,5.17
2019-01-06T23:48:28.756Z,5.47
2019-01-06T23:51:22.127Z,5.37
2019-01-06T23:54:19.913Z,6.17
2019-01-06T23:57:11.398Z,5.63
